createdAt,value
2022-07-29T16:37:39.634Z,2.72
2022-07-29T16:42:47.204Z,2.22
2022-07-29T16:47:49.811Z,2.53
2022-07-29T16:52:52.222Z,2.42
2022-07-29T16:57:54.479Z,2.42
2022-07-29T17:02:56.818Z,2.42
2022-07-29T17:07:59.184Z,3.00
2022-07-29T17:13:01.614Z,3.10
2022-07-29T17:18:12.822Z,2.78
2022-07-29T17:23:15.244Z,2.53
2022-07-29T17:28:17.541Z,2.90
2022-07-29T17:33:19.898Z,2.75
2022-07-29T17:38:22.261Z,2.25
2022-07-29T17:43:24.530Z,2.45
2022-07-29T17:48:27.138Z,2.45
2022-07-29T17:53:29.599Z,2.45
2022-07-29T17:58:32.461Z,2.53
2022-07-29T18:03:34.755Z,2.58
2022-07-29T18:08:39.852Z,2.83
2022-07-29T18:13:42.238Z,2.63
2022-07-29T18:18:45.108Z,2.55
2022-07-29T18:23:50.762Z,3.00
2022-07-29T18:28:53.428Z,3.15
2022-07-29T18:33:59.716Z,3.13
2022-07-29T18:39:02.469Z,3.35
2022-07-29T18:44:05.243Z,3.13
2022-07-29T18:49:08.155Z,2.45
2022-07-29T18:54:10.612Z,2.72
2022-07-29T18:59:17.027Z,2.78
2022-07-29T19:04:19.406Z,3.08
2022-07-29T19:09:21.683Z,3.00
2022-07-29T19:14:23.952Z,3.40
2022-07-29T19:19:26.230Z,3.60
2022-07-29T19:24:29.312Z,3.10
2022-07-29T19:29:33.054Z,2.58
2022-07-29T19:34:35.659Z,2.90
2022-07-29T19:39:37.980Z,2.80
2022-07-29T19:44:40.254Z,3.13
2022-07-29T19:49:42.534Z,2.72
2022-07-29T19:54:44.788Z,2.97
2022-07-29T19:59:47.087Z,3.08
2022-07-29T20:04:49.452Z,2.90
2022-07-29T20:09:54.827Z,2.75
2022-07-29T20:14:57.849Z,3.10
2022-07-29T20:20:01.085Z,3.22
2022-07-29T20:25:05.060Z,3.40
2022-07-29T20:30:08.032Z,3.25
2022-07-29T20:35:12.094Z,3.60
2022-07-29T20:40:14.401Z,2.97
2022-07-29T20:45:16.787Z,2.92
2022-07-29T20:50:23.949Z,3.17
2022-07-29T20:55:27.004Z,4.15
2022-07-29T21:00:29.337Z,3.72
2022-07-29T21:05:31.839Z,3.53
2022-07-29T21:10:34.164Z,3.28
2022-07-29T21:15:36.650Z,3.10
2022-07-29T21:20:38.984Z,2.97
2022-07-29T21:25:41.261Z,3.38
2022-07-29T21:30:43.569Z,3.30
2022-07-29T21:36:14.913Z,3.17
2022-07-29T21:41:08.408Z,2.95
